createdAt,value
2023-10-29T00:00:02.896Z,81.15
2023-10-29T00:03:16.366Z,81.01
2023-10-29T00:06:03.131Z,80.85
2023-10-29T00:08:49.337Z,81.17
2023-10-29T00:11:35.813Z,81.17
2023-10-29T00:14:22.987Z,81.23
2023-10-29T00:17:09.536Z,81.28
2023-10-29T00:19:56.445Z,81.27
2023-10-29T00:22:42.970Z,81.35
2023-10-29T00:25:29.527Z,81.43
2023-10-29T00:28:16.825Z,80.96
2023-10-29T00:31:03.556Z,81.54
2023-10-29T00:33:50.102Z,81.49
2023-10-29T00:36:36.725Z,81.37
2023-10-29T00:39:23.843Z,81.59
2023-10-29T00:42:12.063Z,81.43
2023-10-29T00:44:58.316Z,82.03
2023-10-29T00:47:45.016Z,81.75
2023-10-29T00:50:32.467Z,81.79
2023-10-29T00:53:18.996Z,81.65
2023-10-29T00:56:06.963Z,82.00
2023-10-29T00:58:54.288Z,81.86
2023-10-29T01:01:40.810Z,82.22
2023-10-29T01:04:27.335Z,82.05
2023-10-29T01:07:14.022Z,82.18
2023-10-29T01:10:00.948Z,82.02
2023-10-29T01:12:47.531Z,82.15
2023-10-29T01:15:34.428Z,82.13
2023-10-29T01:18:22.330Z,82.47
2023-10-29T01:21:10.143Z,82.07
2023-10-29T01:23:56.842Z,82.14
2023-10-29T01:26:43.358Z,82.30
2023-10-29T01:29:29.977Z,82.27
2023-10-29T01:32:16.297Z,82.24
2023-10-29T01:35:03.363Z,82.49
2023-10-29T01:37:51.575Z,82.34
2023-10-29T01:40:38.255Z,82.39
2023-10-29T01:43:25.774Z,82.26
2023-10-29T01:46:12.297Z,82.53
2023-10-29T01:48:59.135Z,82.35
2023-10-29T01:51:45.991Z,82.89
2023-10-29T01:54:32.597Z,82.60
2023-10-29T01:57:18.921Z,82.56
2023-10-29T02:00:07.237Z,82.50
2023-10-29T02:03:03.313Z,82.79
2023-10-29T02:05:49.983Z,82.92
2023-10-29T02:08:36.578Z,82.53
2023-10-29T02:11:22.959Z,82.86
2023-10-29T02:14:09.521Z,82.83
2023-10-29T02:16:56.986Z,82.89
2023-10-29T02:19:43.945Z,83.04
2023-10-29T02:22:30.897Z,82.96
2023-10-29T02:25:17.128Z,83.13
2023-10-29T02:28:03.392Z,83.21
2023-10-29T02:30:51.623Z,83.22
2023-10-29T02:33:38.467Z,83.33
2023-10-29T02:36:24.904Z,83.14
2023-10-29T02:39:13.638Z,83.27
2023-10-29T02:42:00.244Z,83.43
2023-10-29T02:44:47.229Z,83.24
2023-10-29T02:47:34.148Z,83.52
2023-10-29T02:50:20.896Z,83.40
2023-10-29T02:53:07.781Z,83.63
2023-10-29T02:55:59.109Z,83.63
2023-10-29T02:58:45.874Z,83.59
2023-10-29T03:01:32.443Z,83.60
2023-10-29T03:04:19.280Z,83.38
2023-10-29T03:07:05.802Z,83.29
2023-10-29T03:09:52.872Z,83.34
2023-10-29T03:12:39.468Z,83.49
2023-10-29T03:15:27.258Z,83.47
2023-10-29T03:18:14.904Z,83.83
2023-10-29T03:21:01.709Z,83.78
2023-10-29T03:23:48.655Z,83.86
2023-10-29T03:26:35.674Z,83.92
2023-10-29T03:29:23.274Z,83.61
2023-10-29T03:32:09.850Z,83.96
2023-10-29T03:34:56.510Z,83.91
2023-10-29T03:37:43.354Z,83.76
2023-10-29T03:40:30.869Z,83.83
2023-10-29T03:43:17.269Z,84.02
2023-10-29T03:46:11.184Z,84.13
2023-10-29T03:48:57.670Z,83.89
2023-10-29T03:51:46.209Z,83.97
2023-10-29T03:54:35.406Z,84.12
2023-10-29T03:57:22.050Z,84.22
2023-10-29T04:00:10.310Z,84.03
2023-10-29T04:02:59.953Z,84.25
2023-10-29T04:05:47.586Z,84.11
2023-10-29T04:08:34.333Z,84.28
2023-10-29T04:11:21.204Z,84.18
2023-10-29T04:14:08.051Z,84.12
2023-10-29T04:16:54.495Z,84.37
2023-10-29T04:19:41.234Z,84.55
2023-10-29T04:22:27.754Z,84.61
2023-10-29T04:25:14.478Z,84.47
2023-10-29T04:28:00.752Z,84.49
2023-10-29T04:30:47.873Z,84.69
2023-10-29T04:33:34.676Z,84.20
2023-10-29T04:36:25.756Z,84.30
2023-10-29T04:39:12.225Z,84.54
2023-10-29T04:41:58.920Z,84.43
2023-10-29T04:44:45.179Z,84.35
2023-10-29T04:47:31.693Z,84.70
2023-10-29T04:50:18.127Z,84.60
2023-10-29T04:53:04.599Z,84.38
2023-10-29T04:55:51.253Z,84.83
2023-10-29T04:58:38.385Z,84.97
2023-10-29T05:01:26.086Z,84.87
2023-10-29T05:04:12.601Z,84.98
2023-10-29T05:06:59.493Z,85.00
2023-10-29T05:09:45.899Z,85.25
2023-10-29T05:12:32.613Z,85.11
2023-10-29T05:15:18.838Z,85.09
2023-10-29T05:18:05.965Z,85.26
2023-10-29T05:20:52.559Z,85.64
2023-10-29T05:23:39.701Z,85.35
2023-10-29T05:26:26.150Z,85.16
2023-10-29T05:29:12.676Z,85.20
2023-10-29T05:31:59.610Z,85.18
2023-10-29T05:34:46.068Z,85.67
2023-10-29T05:37:33.050Z,85.37
2023-10-29T05:40:19.615Z,85.36
2023-10-29T05:43:06.310Z,85.46
2023-10-29T05:45:52.838Z,85.36
2023-10-29T05:48:39.707Z,85.57
2023-10-29T05:51:25.810Z,85.46
2023-10-29T05:54:12.179Z,85.39
2023-10-29T05:56:59.492Z,85.51
2023-10-29T05:59:46.249Z,85.43
2023-10-29T06:02:33.462Z,85.51
2023-10-29T06:05:20.387Z,85.69
2023-10-29T06:08:07.167Z,85.56
2023-10-29T06:10:53.837Z,85.49
2023-10-29T06:13:40.165Z,85.58
2023-10-29T06:16:26.745Z,85.52
2023-10-29T06:19:13.170Z,85.16
2023-10-29T06:21:59.820Z,85.74
2023-10-29T06:24:46.638Z,85.69
2023-10-29T06:27:33.505Z,85.91
2023-10-29T06:30:19.804Z,85.34
2023-10-29T06:33:06.395Z,85.35
2023-10-29T06:35:53.338Z,85.52
2023-10-29T06:38:40.110Z,85.35
2023-10-29T06:41:26.402Z,85.64
2023-10-29T06:44:12.876Z,85.55
2023-10-29T06:46:59.442Z,85.52
2023-10-29T06:49:45.895Z,85.18
2023-10-29T06:52:32.665Z,85.42
2023-10-29T06:55:19.162Z,85.31
2023-10-29T06:58:05.859Z,85.04
2023-10-29T07:00:53.969Z,85.08
2023-10-29T07:03:40.576Z,85.28
2023-10-29T07:06:27.300Z,84.98
2023-10-29T07:09:16.543Z,85.10
2023-10-29T07:12:03.084Z,85.15
2023-10-29T07:14:50.805Z,84.79
2023-10-29T07:17:38.145Z,85.10
2023-10-29T07:20:24.488Z,85.00
2023-10-29T07:23:11.145Z,85.17
2023-10-29T07:25:57.824Z,84.98
2023-10-29T07:28:44.507Z,84.97
2023-10-29T07:31:31.903Z,84.84
2023-10-29T07:34:18.864Z,84.87
2023-10-29T07:37:05.605Z,85.08
2023-10-29T07:39:52.039Z,85.05
2023-10-29T07:42:38.831Z,84.96
2023-10-29T07:45:25.516Z,84.56
2023-10-29T07:48:11.914Z,85.03
2023-10-29T07:50:58.413Z,85.09
2023-10-29T07:53:45.554Z,84.78
2023-10-29T07:56:32.194Z,84.95
2023-10-29T07:59:18.737Z,84.96
2023-10-29T08:02:06.451Z,84.90
2023-10-29T08:04:52.901Z,84.96
2023-10-29T08:07:40.785Z,85.07
2023-10-29T08:10:27.083Z,85.00
2023-10-29T08:13:13.974Z,84.87
2023-10-29T08:16:00.588Z,84.95
2023-10-29T08:18:47.550Z,84.85
2023-10-29T08:21:34.561Z,84.91
2023-10-29T08:24:20.886Z,84.77
2023-10-29T08:27:08.359Z,84.65
2023-10-29T08:29:55.195Z,84.44
2023-10-29T08:32:41.582Z,84.80
2023-10-29T08:35:27.974Z,84.57
2023-10-29T08:38:15.650Z,84.76
2023-10-29T08:41:02.368Z,84.72
2023-10-29T08:43:49.281Z,84.60
2023-10-29T08:46:36.139Z,84.58
2023-10-29T08:49:22.598Z,84.52
2023-10-29T08:52:09.148Z,84.43
2023-10-29T08:54:55.871Z,84.64
2023-10-29T08:57:42.669Z,84.47
2023-10-29T09:00:38.267Z,84.33
2023-10-29T09:03:29.078Z,84.10
2023-10-29T09:06:15.979Z,84.20
2023-10-29T09:09:03.415Z,84.26
2023-10-29T09:11:54.715Z,84.00
2023-10-29T09:14:41.623Z,84.08
2023-10-29T09:17:28.408Z,83.69
2023-10-29T09:20:14.945Z,83.61
2023-10-29T09:23:02.018Z,83.56
2023-10-29T09:25:48.551Z,83.67
2023-10-29T09:28:35.316Z,83.67
2023-10-29T09:31:22.278Z,83.65
2023-10-29T09:34:09.062Z,83.60
2023-10-29T09:36:55.433Z,83.25
2023-10-29T09:39:42.156Z,83.34
2023-10-29T09:42:33.440Z,83.33
2023-10-29T09:45:24.536Z,83.43
2023-10-29T09:48:11.349Z,82.90
2023-10-29T09:50:57.966Z,83.18
2023-10-29T09:53:45.486Z,82.77
2023-10-29T09:56:35.119Z,82.89
2023-10-29T09:59:21.424Z,82.43
2023-10-29T10:02:08.240Z,82.69
2023-10-29T10:04:55.510Z,82.43
2023-10-29T10:07:42.315Z,82.33
2023-10-29T10:10:39.126Z,82.35
2023-10-29T10:13:40.546Z,82.59
2023-10-29T10:16:26.849Z,82.31
2023-10-29T10:19:14.786Z,82.37
2023-10-29T10:22:01.234Z,82.11
2023-10-29T10:24:49.651Z,82.56
2023-10-29T10:27:50.286Z,82.45
2023-10-29T10:30:39.046Z,82.22
2023-10-29T10:33:26.482Z,82.12
2023-10-29T10:36:13.601Z,81.90
2023-10-29T10:39:01.858Z,81.62
2023-10-29T10:41:49.926Z,81.46
2023-10-29T10:44:37.534Z,82.10
2023-10-29T10:47:27.882Z,82.34
2023-10-29T10:50:15.197Z,81.96
2023-10-29T10:53:02.926Z,82.13
2023-10-29T10:56:02.160Z,82.01
2023-10-29T10:58:50.604Z,82.17
2023-10-29T11:01:39.420Z,82.02
2023-10-29T11:04:28.058Z,81.97
2023-10-29T11:07:14.841Z,81.93
2023-10-29T11:10:04.061Z,82.32
2023-10-29T11:12:50.647Z,82.16
2023-10-29T11:15:47.519Z,82.10
2023-10-29T11:18:34.414Z,81.01
2023-10-29T11:21:33.123Z,80.94
2023-10-29T11:24:23.486Z,80.53
2023-10-29T11:27:38.671Z,79.90
2023-10-29T11:30:29.636Z,79.83
2023-10-29T11:33:23.013Z,79.86
2023-10-29T11:36:34.223Z,79.44
2023-10-29T11:39:30.052Z,79.47
2023-10-29T11:42:28.339Z,79.75
2023-10-29T11:45:35.934Z,80.07
2023-10-29T11:48:22.269Z,79.90
2023-10-29T11:51:12.125Z,79.70
2023-10-29T11:54:04.105Z,79.85
2023-10-29T11:56:53.912Z,79.91
2023-10-29T11:59:54.798Z,79.83
2023-10-29T12:02:44.249Z,79.92
2023-10-29T12:05:30.686Z,80.35
2023-10-29T12:08:17.831Z,80.46
2023-10-29T12:11:04.160Z,80.50
2023-10-29T12:13:50.581Z,80.80
2023-10-29T12:16:38.345Z,80.98
2023-10-29T12:19:46.372Z,80.86
2023-10-29T12:22:33.351Z,81.19
2023-10-29T12:25:21.994Z,81.26
2023-10-29T12:28:09.395Z,81.27
2023-10-29T12:30:57.875Z,81.43
2023-10-29T12:33:55.825Z,81.88
2023-10-29T12:36:52.697Z,81.92
2023-10-29T12:39:45.644Z,82.07
2023-10-29T12:42:54.918Z,82.26
2023-10-29T12:45:41.436Z,82.66
2023-10-29T12:48:28.398Z,82.07
2023-10-29T12:51:23.342Z,82.34
2023-10-29T12:54:17.743Z,82.46
2023-10-29T12:57:04.545Z,82.62
2023-10-29T12:59:51.456Z,82.58
2023-10-29T13:02:38.209Z,82.38
2023-10-29T13:05:24.774Z,82.41
2023-10-29T13:08:13.855Z,82.31
2023-10-29T13:11:01.265Z,82.46
2023-10-29T13:13:55.478Z,82.39
2023-10-29T13:16:57.416Z,82.18
2023-10-29T13:19:44.291Z,82.44
2023-10-29T13:22:30.850Z,82.32
2023-10-29T13:25:18.046Z,82.06
2023-10-29T13:28:05.675Z,82.47
2023-10-29T13:30:56.501Z,82.34
2023-10-29T13:33:44.013Z,82.59
2023-10-29T13:36:30.809Z,82.93
2023-10-29T13:39:20.167Z,82.80
2023-10-29T13:42:07.303Z,82.59
2023-10-29T13:44:57.034Z,82.70
2023-10-29T13:47:44.214Z,82.82
2023-10-29T13:50:31.513Z,82.75
2023-10-29T13:53:18.330Z,83.10
2023-10-29T13:56:12.806Z,83.12
2023-10-29T13:58:59.161Z,82.93
2023-10-29T14:01:45.602Z,82.84
2023-10-29T14:04:32.108Z,82.74
2023-10-29T14:07:18.736Z,82.91
2023-10-29T14:10:06.346Z,82.87
2023-10-29T14:12:52.942Z,83.00
2023-10-29T14:15:39.147Z,83.22
2023-10-29T14:18:25.720Z,83.28
2023-10-29T14:21:12.649Z,83.25
2023-10-29T14:24:00.130Z,83.33
2023-10-29T14:26:46.465Z,83.18
2023-10-29T14:29:33.027Z,83.48
2023-10-29T14:32:19.673Z,83.63
2023-10-29T14:35:07.129Z,83.68
2023-10-29T14:37:53.998Z,83.73
2023-10-29T14:40:40.692Z,83.90
2023-10-29T14:43:27.431Z,83.85
2023-10-29T14:46:14.114Z,83.75
2023-10-29T14:49:00.686Z,83.53
2023-10-29T14:51:47.259Z,83.92
2023-10-29T14:54:34.110Z,83.65
2023-10-29T14:57:29.659Z,83.61
2023-10-29T15:00:17.160Z,83.55
2023-10-29T15:03:04.176Z,83.60
2023-10-29T15:05:51.039Z,83.43
2023-10-29T15:08:38.348Z,83.49
2023-10-29T15:11:36.807Z,83.73
2023-10-29T15:14:23.909Z,83.79
2023-10-29T15:17:10.892Z,83.66
2023-10-29T15:20:00.627Z,83.66
2023-10-29T15:22:50.463Z,83.80
2023-10-29T15:25:44.159Z,83.23
2023-10-29T15:28:30.585Z,83.27
2023-10-29T15:31:17.969Z,83.73
2023-10-29T15:34:04.798Z,83.61
2023-10-29T15:36:51.388Z,83.68
2023-10-29T15:39:38.959Z,83.42
2023-10-29T15:42:26.389Z,83.25
2023-10-29T15:45:12.786Z,83.11
2023-10-29T15:47:59.632Z,82.97
2023-10-29T15:50:53.951Z,82.62
2023-10-29T15:53:40.701Z,82.66
2023-10-29T15:56:28.142Z,82.98
2023-10-29T15:59:14.533Z,82.18
2023-10-29T16:02:01.614Z,82.48
2023-10-29T16:04:48.459Z,82.32
2023-10-29T16:07:35.526Z,82.39
2023-10-29T16:10:22.393Z,81.64
2023-10-29T16:13:08.893Z,82.02
2023-10-29T16:15:55.467Z,82.28
2023-10-29T16:18:41.797Z,82.04
2023-10-29T16:21:28.448Z,81.99
2023-10-29T16:24:15.043Z,81.86
2023-10-29T16:27:01.943Z,81.80
2023-10-29T16:29:48.766Z,81.80
2023-10-29T16:32:35.690Z,82.05
2023-10-29T16:35:22.805Z,81.97
2023-10-29T16:38:10.352Z,81.57
2023-10-29T16:40:57.993Z,81.56
2023-10-29T16:43:48.389Z,81.69
2023-10-29T16:46:38.867Z,81.44
2023-10-29T16:49:26.005Z,81.59
2023-10-29T16:52:15.656Z,81.64
2023-10-29T16:55:02.582Z,81.30
2023-10-29T16:57:49.515Z,81.41
2023-10-29T17:00:36.435Z,81.34
2023-10-29T17:03:23.360Z,81.51
2023-10-29T17:06:11.760Z,81.41
2023-10-29T17:08:59.732Z,81.22
2023-10-29T17:11:48.725Z,81.08
2023-10-29T17:14:35.951Z,80.91
2023-10-29T17:17:23.217Z,80.90
2023-10-29T17:20:11.927Z,80.48
2023-10-29T17:22:58.852Z,80.45
2023-10-29T17:25:45.925Z,80.47
2023-10-29T17:28:32.679Z,80.43
2023-10-29T17:31:20.246Z,80.52
2023-10-29T17:34:07.658Z,80.28
2023-10-29T17:36:54.411Z,80.29
2023-10-29T17:39:41.391Z,80.30
2023-10-29T17:42:30.580Z,80.10
2023-10-29T17:45:18.004Z,80.40
2023-10-29T17:48:05.657Z,80.32
2023-10-29T17:50:59.408Z,80.12
2023-10-29T17:53:48.151Z,80.55
2023-10-29T17:56:34.917Z,80.32
2023-10-29T17:59:22.631Z,80.23
2023-10-29T18:02:09.486Z,80.29
2023-10-29T18:04:55.987Z,80.33
2023-10-29T18:07:43.422Z,79.74
2023-10-29T18:10:30.630Z,80.27
2023-10-29T18:13:17.385Z,80.28
2023-10-29T18:16:05.015Z,79.70
2023-10-29T18:18:52.326Z,80.10
2023-10-29T18:21:39.216Z,80.02
2023-10-29T18:24:26.466Z,79.92
2023-10-29T18:27:14.885Z,80.33
2023-10-29T18:30:02.738Z,80.12
2023-10-29T18:32:50.566Z,80.41
2023-10-29T18:35:37.874Z,80.33
2023-10-29T18:38:24.934Z,80.53
2023-10-29T18:41:19.679Z,80.40
2023-10-29T18:44:08.032Z,80.43
2023-10-29T18:46:54.949Z,80.44
2023-10-29T18:49:42.172Z,80.54
2023-10-29T18:52:29.159Z,80.27
2023-10-29T18:55:15.973Z,80.53
2023-10-29T18:58:03.458Z,80.61
2023-10-29T19:00:52.647Z,80.50
2023-10-29T19:03:41.352Z,80.66
2023-10-29T19:06:28.956Z,80.38
2023-10-29T19:09:16.400Z,80.74
2023-10-29T19:12:06.655Z,80.52
2023-10-29T19:14:53.972Z,80.45
2023-10-29T19:17:43.042Z,80.20
2023-10-29T19:20:29.910Z,80.19
2023-10-29T19:23:16.783Z,79.97
2023-10-29T19:26:04.164Z,80.02
2023-10-29T19:28:51.456Z,80.07
2023-10-29T19:31:38.956Z,79.80
2023-10-29T19:34:27.878Z,79.56
2023-10-29T19:37:18.339Z,79.39
2023-10-29T19:40:06.926Z,79.64
2023-10-29T19:42:54.744Z,79.11
2023-10-29T19:45:41.776Z,78.82
2023-10-29T19:48:32.634Z,78.95
2023-10-29T19:51:19.980Z,78.88
2023-10-29T19:54:06.939Z,78.73
2023-10-29T19:56:53.928Z,78.90
2023-10-29T19:59:41.467Z,78.60
2023-10-29T20:02:28.881Z,78.67
2023-10-29T20:05:15.696Z,78.61
2023-10-29T20:08:02.544Z,78.46
2023-10-29T20:10:49.618Z,78.42
2023-10-29T20:13:37.923Z,78.18
2023-10-29T20:16:24.822Z,78.22
2023-10-29T20:19:11.781Z,78.40
2023-10-29T20:22:01.185Z,78.21
2023-10-29T20:24:47.800Z,77.96
2023-10-29T20:27:36.742Z,78.28
2023-10-29T20:30:24.351Z,78.17
2023-10-29T20:33:11.469Z,78.38
2023-10-29T20:35:58.702Z,78.45
2023-10-29T20:38:45.373Z,79.15
2023-10-29T20:41:32.044Z,79.32
2023-10-29T20:44:18.769Z,79.19
2023-10-29T20:47:06.825Z,78.97
2023-10-29T20:49:52.947Z,78.67
2023-10-29T20:52:40.164Z,79.06
2023-10-29T20:55:27.611Z,78.61
2023-10-29T20:58:14.836Z,78.56
2023-10-29T21:01:04.387Z,78.23
2023-10-29T21:03:51.397Z,78.33
2023-10-29T21:06:38.368Z,78.26
2023-10-29T21:09:24.977Z,78.18
2023-10-29T21:12:11.693Z,77.82
2023-10-29T21:14:58.553Z,77.84
2023-10-29T21:17:45.859Z,78.04
2023-10-29T21:20:32.994Z,77.60
2023-10-29T21:23:20.691Z,77.47
2023-10-29T21:26:07.106Z,77.68
2023-10-29T21:28:53.499Z,77.70
2023-10-29T21:31:40.243Z,78.15
2023-10-29T21:34:27.034Z,78.38
2023-10-29T21:37:13.490Z,78.53
2023-10-29T21:40:23.437Z,79.31
2023-10-29T21:43:18.546Z,79.60
2023-10-29T21:46:06.667Z,79.75
2023-10-29T21:49:07.857Z,80.15
2023-10-29T21:52:04.711Z,80.31
2023-10-29T21:54:56.702Z,80.57
2023-10-29T21:57:51.297Z,80.34
2023-10-29T22:00:38.350Z,80.26
2023-10-29T22:03:34.010Z,80.03
2023-10-29T22:06:33.824Z,80.65
2023-10-29T22:09:20.188Z,81.36
2023-10-29T22:12:06.894Z,81.49
2023-10-29T22:14:54.019Z,81.91
2023-10-29T22:17:40.509Z,82.57
2023-10-29T22:20:30.291Z,82.49
2023-10-29T22:23:16.851Z,83.03
2023-10-29T22:26:04.357Z,83.03
2023-10-29T22:28:51.000Z,83.53
2023-10-29T22:31:38.443Z,84.09
2023-10-29T22:34:24.904Z,84.05
2023-10-29T22:37:22.142Z,84.05
2023-10-29T22:40:11.406Z,84.14
2023-10-29T22:43:04.246Z,84.37
2023-10-29T22:45:50.779Z,84.19
2023-10-29T22:48:37.318Z,83.88
2023-10-29T22:51:32.794Z,84.68
2023-10-29T22:54:19.376Z,84.39
2023-10-29T22:57:11.356Z,84.25
2023-10-29T22:59:58.255Z,84.47
2023-10-29T23:02:45.713Z,84.60
2023-10-29T23:05:33.595Z,84.47
2023-10-29T23:08:19.999Z,84.79
2023-10-29T23:11:07.587Z,84.66
2023-10-29T23:13:54.257Z,84.76
2023-10-29T23:16:41.090Z,84.96
2023-10-29T23:19:28.248Z,84.84
2023-10-29T23:22:14.976Z,85.27
2023-10-29T23:25:01.314Z,85.29
2023-10-29T23:27:47.862Z,85.82
2023-10-29T23:30:34.397Z,85.87
2023-10-29T23:33:20.798Z,85.95
2023-10-29T23:36:08.004Z,85.87
2023-10-29T23:38:54.115Z,85.44
2023-10-29T23:41:41.024Z,85.57
2023-10-29T23:44:27.873Z,85.83
2023-10-29T23:47:14.690Z,85.81
2023-10-29T23:50:01.630Z,85.77
2023-10-29T23:52:48.242Z,85.74
2023-10-29T23:55:34.866Z,85.39
2023-10-29T23:58:21.583Z,85.59
